Flemington, Missouri
Current Conditions -  °F | °C
As of 9:35 AM on Wednesday 26 Nov 2014 (Local Time) from KGLY Reporting Station
Few Clouds Few Clouds  
Wind Chill: 33°   Ceiling: Unl
Heat Index: 39°   Visibility: 10mi
Dew Point: 37°   Wind: 9mph
Humidity: 93%   Direction: 240°WSW
Pressure: 29.99"   Gusts: NA
Location:  37.8°N, 93.5°W
Report Text: KGLY 261535Z AUTO 24008KT 10SM FEW006 04/03 A2999 RMK AO2
Loading
Personal Weather Stations






























Interactive Weather Map New forecast layout! Learn more

10-Day Weather Forecast

Advertisements
Track Severe Weather on mobile